sensor_id;sensor_type;location;lat;lon;timestamp;temperature;humidity
56044;DHT22;41912;51.022;3.664;2023-05-27T00:01:23;15.10;95.30
56044;DHT22;41912;51.022;3.664;2023-05-27T00:03:49;15.00;95.40
56044;DHT22;41912;51.022;3.664;2023-05-27T00:06:14;15.00;95.50
56044;DHT22;41912;51.022;3.664;2023-05-27T00:08:40;15.00;95.40
56044;DHT22;41912;51.022;3.664;2023-05-27T00:11:05;15.00;95.60
56044;DHT22;41912;51.022;3.664;2023-05-27T00:13:31;15.00;95.80
56044;DHT22;41912;51.022;3.664;2023-05-27T00:15:57;15.00;95.80
56044;DHT22;41912;51.022;3.664;2023-05-27T00:18:22;15.00;95.70
56044;DHT22;41912;51.022;3.664;2023-05-27T00:20:48;15.00;95.80
56044;DHT22;41912;51.022;3.664;2023-05-27T00:23:14;15.00;95.80
56044;DHT22;41912;51.022;3.664;2023-05-27T00:25:40;15.00;95.80
56044;DHT22;41912;51.022;3.664;2023-05-27T00:28:06;14.90;95.70
56044;DHT22;41912;51.022;3.664;2023-05-27T00:30:31;14.90;95.70
56044;DHT22;41912;51.022;3.664;2023-05-27T00:32:57;14.80;95.90
56044;DHT22;41912;51.022;3.664;2023-05-27T00:35:23;14.80;96.10
56044;DHT22;41912;51.022;3.664;2023-05-27T00:37:49;14.80;96.10
56044;DHT22;41912;51.022;3.664;2023-05-27T00:40:19;14.70;96.10
56044;DHT22;41912;51.022;3.664;2023-05-27T00:42:46;14.70;96.20
56044;DHT22;41912;51.022;3.664;2023-05-27T00:45:12;14.70;96.30
56044;DHT22;41912;51.022;3.664;2023-05-27T00:47:37;14.60;96.40
56044;DHT22;41912;51.022;3.664;2023-05-27T00:50:04;14.60;96.40
56044;DHT22;41912;51.022;3.664;2023-05-27T00:52:31;14.60;96.50
56044;DHT22;41912;51.022;3.664;2023-05-27T00:54:57;14.50;96.70
56044;DHT22;41912;51.022;3.664;2023-05-27T00:57:24;14.50;96.80
56044;DHT22;41912;51.022;3.664;2023-05-27T00:59:51;14.40;96.80
56044;DHT22;41912;51.022;3.664;2023-05-27T01:02:17;14.40;96.90
56044;DHT22;41912;51.022;3.664;2023-05-27T01:04:43;14.40;97.00
56044;DHT22;41912;51.022;3.664;2023-05-27T01:07:26;14.40;97.10
56044;DHT22;41912;51.022;3.664;2023-05-27T01:10:04;14.50;97.10
56044;DHT22;41912;51.022;3.664;2023-05-27T01:12:44;14.50;97.10
56044;DHT22;41912;51.022;3.664;2023-05-27T01:15:12;14.30;97.20
56044;DHT22;41912;51.022;3.664;2023-05-27T01:17:38;14.30;97.40
56044;DHT22;41912;51.022;3.664;2023-05-27T01:20:12;14.30;97.30
56044;DHT22;41912;51.022;3.664;2023-05-27T01:22:40;14.20;97.50
56044;DHT22;41912;51.022;3.664;2023-05-27T01:25:08;14.20;97.60
56044;DHT22;41912;51.022;3.664;2023-05-27T01:27:33;14.20;97.60
56044;DHT22;41912;51.022;3.664;2023-05-27T01:30:00;14.20;97.70
56044;DHT22;41912;51.022;3.664;2023-05-27T01:37:32;14.30;97.60
56044;DHT22;41912;51.022;3.664;2023-05-27T01:39:59;14.20;97.60
56044;DHT22;41912;51.022;3.664;2023-05-27T01:42:25;14.20;97.60
56044;DHT22;41912;51.022;3.664;2023-05-27T01:44:52;14.20;97.70
56044;DHT22;41912;51.022;3.664;2023-05-27T01:47:19;14.20;97.50
56044;DHT22;41912;51.022;3.664;2023-05-27T01:49:44;14.20;97.50
56044;DHT22;41912;51.022;3.664;2023-05-27T01:52:10;14.20;97.80
56044;DHT22;41912;51.022;3.664;2023-05-27T01:54:36;14.10;97.90
56044;DHT22;41912;51.022;3.664;2023-05-27T01:57:02;14.00;98.00
56044;DHT22;41912;51.022;3.664;2023-05-27T01:59:28;14.00;98.10
56044;DHT22;41912;51.022;3.664;2023-05-27T02:01:54;14.00;98.30
56044;DHT22;41912;51.022;3.664;2023-05-27T02:04:19;13.90;98.30
56044;DHT22;41912;51.022;3.664;2023-05-27T02:06:45;13.90;98.50
56044;DHT22;41912;51.022;3.664;2023-05-27T02:09:10;13.80;98.70
56044;DHT22;41912;51.022;3.664;2023-05-27T02:11:38;13.80;98.70
56044;DHT22;41912;51.022;3.664;2023-05-27T02:14:04;13.70;98.70
56044;DHT22;41912;51.022;3.664;2023-05-27T02:16:30;13.80;98.90
56044;DHT22;41912;51.022;3.664;2023-05-27T02:19:02;13.70;98.80
56044;DHT22;41912;51.022;3.664;2023-05-27T02:21:28;13.80;99.30
56044;DHT22;41912;51.022;3.664;2023-05-27T02:23:53;13.70;98.90
56044;DHT22;41912;51.022;3.664;2023-05-27T02:26:19;13.70;98.80
56044;DHT22;41912;51.022;3.664;2023-05-27T02:28:46;13.70;99.00
56044;DHT22;41912;51.022;3.664;2023-05-27T02:31:11;13.70;99.10
56044;DHT22;41912;51.022;3.664;2023-05-27T02:33:37;13.60;99.20
56044;DHT22;41912;51.022;3.664;2023-05-27T02:36:03;13.60;99.20
56044;DHT22;41912;51.022;3.664;2023-05-27T02:38:28;13.60;99.30
56044;DHT22;41912;51.022;3.664;2023-05-27T02:40:54;13.50;99.30
56044;DHT22;41912;51.022;3.664;2023-05-27T02:43:20;13.60;99.40
56044;DHT22;41912;51.022;3.664;2023-05-27T02:45:45;13.60;99.40
56044;DHT22;41912;51.022;3.664;2023-05-27T02:48:11;13.50;99.40
56044;DHT22;41912;51.022;3.664;2023-05-27T02:50:37;13.50;99.30
56044;DHT22;41912;51.022;3.664;2023-05-27T02:53:02;13.50;99.30
56044;DHT22;41912;51.022;3.664;2023-05-27T02:55:28;13.50;99.40
56044;DHT22;41912;51.022;3.664;2023-05-27T02:57:53;13.50;99.40
56044;DHT22;41912;51.022;3.664;2023-05-27T03:00:19;13.50;99.40
56044;DHT22;41912;51.022;3.664;2023-05-27T03:02:45;13.50;99.40
56044;DHT22;41912;51.022;3.664;2023-05-27T03:05:11;13.50;99.60
56044;DHT22;41912;51.022;3.664;2023-05-27T03:07:37;13.40;99.50
56044;DHT22;41912;51.022;3.664;2023-05-27T03:10:02;13.40;99.50
56044;DHT22;41912;51.022;3.664;2023-05-27T03:12:28;13.40;99.70
56044;DHT22;41912;51.022;3.664;2023-05-27T03:14:54;13.30;99.70
56044;DHT22;41912;51.022;3.664;2023-05-27T03:17:20;13.30;99.80
56044;DHT22;41912;51.022;3.664;2023-05-27T03:19:45;13.20;99.90
56044;DHT22;41912;51.022;3.664;2023-05-27T03:22:12;13.10;99.90
56044;DHT22;41912;51.022;3.664;2023-05-27T03:24:37;13.10;99.90
56044;DHT22;41912;51.022;3.664;2023-05-27T03:27:03;13.10;99.90
56044;DHT22;41912;51.022;3.664;2023-05-27T03:29:29;13.10;99.90
56044;DHT22;41912;51.022;3.664;2023-05-27T03:31:56;13.10;99.90
56044;DHT22;41912;51.022;3.664;2023-05-27T03:34:22;13.00;99.90
56044;DHT22;41912;51.022;3.664;2023-05-27T03:36:47;13.00;99.90
56044;DHT22;41912;51.022;3.664;2023-05-27T03:39:15;13.00;99.90
56044;DHT22;41912;51.022;3.664;2023-05-27T03:41:41;13.00;99.90
56044;DHT22;41912;51.022;3.664;2023-05-27T03:44:07;12.90;99.90
56044;DHT22;41912;51.022;3.664;2023-05-27T03:46:33;13.00;99.90
56044;DHT22;41912;51.022;3.664;2023-05-27T03:48:59;12.90;99.90
56044;DHT22;41912;51.022;3.664;2023-05-27T03:51:24;12.90;99.90
56044;DHT22;41912;51.022;3.664;2023-05-27T03:53:50;12.90;99.90
56044;DHT22;41912;51.022;3.664;2023-05-27T03:56:16;12.90;99.90
56044;DHT22;41912;51.022;3.664;2023-05-27T03:58:41;12.90;99.90
56044;DHT22;41912;51.022;3.664;2023-05-27T04:01:07;12.80;99.90
56044;DHT22;41912;51.022;3.664;2023-05-27T04:03:33;12.80;99.90
56044;DHT22;41912;51.022;3.664;2023-05-27T04:05:59;12.80;99.90
56044;DHT22;41912;51.022;3.664;2023-05-27T04:08:25;12.70;99.90
56044;DHT22;41912;51.022;3.664;2023-05-27T04:10:56;12.70;99.90
56044;DHT22;41912;51.022;3.664;2023-05-27T04:13:22;12.60;99.90
56044;DHT22;41912;51.022;3.664;2023-05-27T04:15:47;12.70;99.90
56044;DHT22;41912;51.022;3.664;2023-05-27T04:18:14;12.70;99.90
56044;DHT22;41912;51.022;3.664;2023-05-27T04:20:42;12.70;99.90
56044;DHT22;41912;51.022;3.664;2023-05-27T04:23:09;12.60;99.90
56044;DHT22;41912;51.022;3.664;2023-05-27T04:25:36;12.70;99.90
56044;DHT22;41912;51.022;3.664;2023-05-27T04:28:03;12.60;99.90
56044;DHT22;41912;51.022;3.664;2023-05-27T04:30:32;12.70;99.90
56044;DHT22;41912;51.022;3.664;2023-05-27T04:32:58;12.70;99.90
56044;DHT22;41912;51.022;3.664;2023-05-27T04:35:25;12.70;99.90
56044;DHT22;41912;51.022;3.664;2023-05-27T04:37:52;12.70;99.90
56044;DHT22;41912;51.022;3.664;2023-05-27T04:40:18;12.70;99.90
56044;DHT22;41912;51.022;3.664;2023-05-27T04:42:44;12.60;99.90
56044;DHT22;41912;51.022;3.664;2023-05-27T04:45:10;12.70;99.90
56044;DHT22;41912;51.022;3.664;2023-05-27T04:47:37;12.50;99.90
56044;DHT22;41912;51.022;3.664;2023-05-27T04:50:06;12.40;99.90
56044;DHT22;41912;51.022;3.664;2023-05-27T04:52:32;12.40;99.90
56044;DHT22;41912;51.022;3.664;2023-05-27T04:55:05;12.40;99.90
56044;DHT22;41912;51.022;3.664;2023-05-27T04:57:31;12.50;99.90
56044;DHT22;41912;51.022;3.664;2023-05-27T04:59:57;12.50;99.90
56044;DHT22;41912;51.022;3.664;2023-05-27T05:02:45;12.60;99.90
56044;DHT22;41912;51.022;3.664;2023-05-27T05:05:13;12.60;99.90
56044;DHT22;41912;51.022;3.664;2023-05-27T05:07:40;12.60;99.90
56044;DHT22;41912;51.022;3.664;2023-05-27T05:10:10;12.60;99.90
56044;DHT22;41912;51.022;3.664;2023-05-27T05:12:37;12.70;99.90
56044;DHT22;41912;51.022;3.664;2023-05-27T05:15:04;12.60;99.90
56044;DHT22;41912;51.022;3.664;2023-05-27T05:17:30;12.70;99.90
56044;DHT22;41912;51.022;3.664;2023-05-27T05:19:55;12.70;99.90
56044;DHT22;41912;51.022;3.664;2023-05-27T05:22:21;12.60;99.90
56044;DHT22;41912;51.022;3.664;2023-05-27T05:24:50;12.70;99.90
56044;DHT22;41912;51.022;3.664;2023-05-27T05:27:15;12.70;99.90
56044;DHT22;41912;51.022;3.664;2023-05-27T05:29:41;12.70;99.90
56044;DHT22;41912;51.022;3.664;2023-05-27T05:32:08;12.70;99.90
56044;DHT22;41912;51.022;3.664;2023-05-27T05:34:36;12.80;99.90
56044;DHT22;41912;51.022;3.664;2023-05-27T05:37:02;12.80;99.90
56044;DHT22;41912;51.022;3.664;2023-05-27T05:39:28;12.80;99.90
56044;DHT22;41912;51.022;3.664;2023-05-27T05:41:53;12.80;99.90
56044;DHT22;41912;51.022;3.664;2023-05-27T05:44:19;12.80;99.90
56044;DHT22;41912;51.022;3.664;2023-05-27T05:46:45;12.80;99.90
56044;DHT22;41912;51.022;3.664;2023-05-27T05:49:10;12.80;99.90
56044;DHT22;41912;51.022;3.664;2023-05-27T05:51:36;12.80;99.90
56044;DHT22;41912;51.022;3.664;2023-05-27T05:54:01;12.90;99.90
56044;DHT22;41912;51.022;3.664;2023-05-27T05:56:27;13.00;99.90
56044;DHT22;41912;51.022;3.664;2023-05-27T05:58:53;13.00;99.90
56044;DHT22;41912;51.022;3.664;2023-05-27T06:01:19;13.10;99.90
56044;DHT22;41912;51.022;3.664;2023-05-27T06:03:45;13.10;99.90
56044;DHT22;41912;51.022;3.664;2023-05-27T06:06:11;13.10;99.90
56044;DHT22;41912;51.022;3.664;2023-05-27T06:08:36;13.10;99.90
56044;DHT22;41912;51.022;3.664;2023-05-27T06:11:02;13.20;99.90
56044;DHT22;41912;51.022;3.664;2023-05-27T06:13:28;13.20;99.90
56044;DHT22;41912;51.022;3.664;2023-05-27T06:15:53;13.30;99.90
56044;DHT22;41912;51.022;3.664;2023-05-27T06:18:21;13.40;99.90
56044;DHT22;41912;51.022;3.664;2023-05-27T06:20:46;13.40;99.90
56044;DHT22;41912;51.022;3.664;2023-05-27T06:23:12;13.40;99.90
56044;DHT22;41912;51.022;3.664;2023-05-27T06:25:38;13.50;99.90
56044;DHT22;41912;51.022;3.664;2023-05-27T06:28:04;13.50;99.90
56044;DHT22;41912;51.022;3.664;2023-05-27T06:30:30;13.50;99.90
56044;DHT22;41912;51.022;3.664;2023-05-27T06:32:57;13.50;99.90
56044;DHT22;41912;51.022;3.664;2023-05-27T06:35:22;13.60;99.90
56044;DHT22;41912;51.022;3.664;2023-05-27T06:37:48;13.70;99.90
56044;DHT22;41912;51.022;3.664;2023-05-27T06:40:13;13.60;99.90
56044;DHT22;41912;51.022;3.664;2023-05-27T06:42:39;13.70;99.90
56044;DHT22;41912;51.022;3.664;2023-05-27T06:45:05;13.80;99.90
56044;DHT22;41912;51.022;3.664;2023-05-27T06:47:31;13.80;99.90
56044;DHT22;41912;51.022;3.664;2023-05-27T06:49:57;13.80;99.90
56044;DHT22;41912;51.022;3.664;2023-05-27T06:52:22;13.80;99.90
56044;DHT22;41912;51.022;3.664;2023-05-27T06:54:48;13.80;99.90
56044;DHT22;41912;51.022;3.664;2023-05-27T06:57:14;13.90;99.90
56044;DHT22;41912;51.022;3.664;2023-05-27T06:59:40;14.00;99.90
56044;DHT22;41912;51.022;3.664;2023-05-27T07:02:06;14.00;99.90
56044;DHT22;41912;51.022;3.664;2023-05-27T07:04:32;14.10;99.90
56044;DHT22;41912;51.022;3.664;2023-05-27T07:06:58;14.20;99.90
56044;DHT22;41912;51.022;3.664;2023-05-27T07:09:24;14.20;99.90
56044;DHT22;41912;51.022;3.664;2023-05-27T07:11:49;14.30;99.90
56044;DHT22;41912;51.022;3.664;2023-05-27T07:14:15;14.40;99.90
56044;DHT22;41912;51.022;3.664;2023-05-27T07:16:41;14.40;99.90
56044;DHT22;41912;51.022;3.664;2023-05-27T07:19:07;14.50;99.80
56044;DHT22;41912;51.022;3.664;2023-05-27T07:21:32;14.50;99.40
56044;DHT22;41912;51.022;3.664;2023-05-27T07:24:00;14.60;99.90
56044;DHT22;41912;51.022;3.664;2023-05-27T07:26:31;14.60;99.80
56044;DHT22;41912;51.022;3.664;2023-05-27T07:29:01;14.70;99.60
56044;DHT22;41912;51.022;3.664;2023-05-27T07:31:27;14.80;99.50
56044;DHT22;41912;51.022;3.664;2023-05-27T07:33:53;14.90;99.40
56044;DHT22;41912;51.022;3.664;2023-05-27T07:36:19;14.90;99.90
56044;DHT22;41912;51.022;3.664;2023-05-27T07:38:44;15.10;99.40
56044;DHT22;41912;51.022;3.664;2023-05-27T07:41:11;15.20;99.00
56044;DHT22;41912;51.022;3.664;2023-05-27T07:43:36;15.30;98.50
56044;DHT22;41912;51.022;3.664;2023-05-27T07:46:02;15.40;99.00
56044;DHT22;41912;51.022;3.664;2023-05-27T07:48:28;15.50;98.80
56044;DHT22;41912;51.022;3.664;2023-05-27T07:50:54;15.50;98.70
56044;DHT22;41912;51.022;3.664;2023-05-27T07:53:20;15.60;98.30
56044;DHT22;41912;51.022;3.664;2023-05-27T07:55:46;15.60;98.50
56044;DHT22;41912;51.022;3.664;2023-05-27T07:58:12;15.70;98.00
56044;DHT22;41912;51.022;3.664;2023-05-27T08:00:38;15.70;97.90
56044;DHT22;41912;51.022;3.664;2023-05-27T08:03:03;15.80;97.70
56044;DHT22;41912;51.022;3.664;2023-05-27T08:05:29;15.90;97.60
56044;DHT22;41912;51.022;3.664;2023-05-27T08:07:54;15.90;97.70
56044;DHT22;41912;51.022;3.664;2023-05-27T08:10:20;16.10;97.90
56044;DHT22;41912;51.022;3.664;2023-05-27T08:12:46;16.10;97.50
56044;DHT22;41912;51.022;3.664;2023-05-27T08:15:12;16.20;97.00
56044;DHT22;41912;51.022;3.664;2023-05-27T08:17:37;16.20;97.20
56044;DHT22;41912;51.022;3.664;2023-05-27T08:20:03;16.30;96.50
56044;DHT22;41912;51.022;3.664;2023-05-27T08:22:29;16.30;96.90
56044;DHT22;41912;51.022;3.664;2023-05-27T08:24:55;16.40;96.30
56044;DHT22;41912;51.022;3.664;2023-05-27T08:27:41;16.50;96.30
56044;DHT22;41912;51.022;3.664;2023-05-27T08:30:07;16.60;96.50
56044;DHT22;41912;51.022;3.664;2023-05-27T08:32:33;16.60;95.80
56044;DHT22;41912;51.022;3.664;2023-05-27T08:34:59;16.70;96.20
56044;DHT22;41912;51.022;3.664;2023-05-27T08:37:25;16.80;96.00
56044;DHT22;41912;51.022;3.664;2023-05-27T08:39:51;16.90;95.90
56044;DHT22;41912;51.022;3.664;2023-05-27T08:42:16;17.00;95.50
56044;DHT22;41912;51.022;3.664;2023-05-27T08:44:42;17.00;95.30
56044;DHT22;41912;51.022;3.664;2023-05-27T08:47:08;17.00;95.40
56044;DHT22;41912;51.022;3.664;2023-05-27T08:49:33;17.10;95.90
56044;DHT22;41912;51.022;3.664;2023-05-27T08:52:01;17.20;95.10
56044;DHT22;41912;51.022;3.664;2023-05-27T08:54:28;17.20;94.80
56044;DHT22;41912;51.022;3.664;2023-05-27T08:56:55;17.30;95.00
56044;DHT22;41912;51.022;3.664;2023-05-27T08:59:24;17.30;94.40
56044;DHT22;41912;51.022;3.664;2023-05-27T09:01:50;17.40;94.80
56044;DHT22;41912;51.022;3.664;2023-05-27T09:04:15;17.50;94.20
56044;DHT22;41912;51.022;3.664;2023-05-27T09:06:41;17.60;94.10
56044;DHT22;41912;51.022;3.664;2023-05-27T09:09:07;17.70;94.80
56044;DHT22;41912;51.022;3.664;2023-05-27T09:11:39;17.70;94.50
56044;DHT22;41912;51.022;3.664;2023-05-27T09:14:05;17.90;93.80
56044;DHT22;41912;51.022;3.664;2023-05-27T09:16:31;18.00;93.60
56044;DHT22;41912;51.022;3.664;2023-05-27T09:18:56;18.00;93.00
56044;DHT22;41912;51.022;3.664;2023-05-27T09:21:24;18.10;93.10
56044;DHT22;41912;51.022;3.664;2023-05-27T09:23:55;18.20;93.50
56044;DHT22;41912;51.022;3.664;2023-05-27T09:26:21;18.30;93.90
56044;DHT22;41912;51.022;3.664;2023-05-27T09:28:48;18.40;93.30
56044;DHT22;41912;51.022;3.664;2023-05-27T09:31:14;18.50;92.70
56044;DHT22;41912;51.022;3.664;2023-05-27T09:33:40;18.50;92.00
56044;DHT22;41912;51.022;3.664;2023-05-27T09:36:07;18.60;93.70
56044;DHT22;41912;51.022;3.664;2023-05-27T09:38:36;18.60;93.00
56044;DHT22;41912;51.022;3.664;2023-05-27T09:41:02;18.70;92.10
56044;DHT22;41912;51.022;3.664;2023-05-27T09:43:29;18.80;92.60
56044;DHT22;41912;51.022;3.664;2023-05-27T09:46:11;18.80;92.50
56044;DHT22;41912;51.022;3.664;2023-05-27T09:48:37;18.80;92.30
56044;DHT22;41912;51.022;3.664;2023-05-27T09:51:04;18.80;92.00
56044;DHT22;41912;51.022;3.664;2023-05-27T09:53:29;18.90;92.50
56044;DHT22;41912;51.022;3.664;2023-05-27T09:55:58;19.00;91.80
56044;DHT22;41912;51.022;3.664;2023-05-27T09:58:24;19.10;91.40
56044;DHT22;41912;51.022;3.664;2023-05-27T10:00:50;19.10;91.80
56044;DHT22;41912;51.022;3.664;2023-05-27T10:03:17;19.30;91.60
56044;DHT22;41912;51.022;3.664;2023-05-27T10:05:46;19.40;91.20
56044;DHT22;41912;51.022;3.664;2023-05-27T10:08:13;19.40;92.00
56044;DHT22;41912;51.022;3.664;2023-05-27T10:10:39;19.50;91.70
56044;DHT22;41912;51.022;3.664;2023-05-27T10:13:06;19.60;92.10
56044;DHT22;41912;51.022;3.664;2023-05-27T10:15:33;19.60;90.20
56044;DHT22;41912;51.022;3.664;2023-05-27T10:18:01;19.70;91.00
56044;DHT22;41912;51.022;3.664;2023-05-27T10:23:17;19.90;91.70
56044;DHT22;41912;51.022;3.664;2023-05-27T10:25:53;20.00;91.70
56044;DHT22;41912;51.022;3.664;2023-05-27T10:28:31;20.20;90.90
56044;DHT22;41912;51.022;3.664;2023-05-27T10:33:30;20.40;89.00
56044;DHT22;41912;51.022;3.664;2023-05-27T10:38:35;20.40;89.70
56044;DHT22;41912;51.022;3.664;2023-05-27T10:41:03;20.60;90.50
56044;DHT22;41912;51.022;3.664;2023-05-27T10:43:29;20.60;89.10
56044;DHT22;41912;51.022;3.664;2023-05-27T10:46:09;20.80;88.20
56044;DHT22;41912;51.022;3.664;2023-05-27T10:48:36;20.90;86.30
56044;DHT22;41912;51.022;3.664;2023-05-27T10:51:03;20.90;87.50
56044;DHT22;41912;51.022;3.664;2023-05-27T10:53:29;21.10;87.40
56044;DHT22;41912;51.022;3.664;2023-05-27T10:55:58;21.10;85.80
56044;DHT22;41912;51.022;3.664;2023-05-27T10:58:26;21.20;87.10
56044;DHT22;41912;51.022;3.664;2023-05-27T11:00:53;21.30;86.20
56044;DHT22;41912;51.022;3.664;2023-05-27T11:03:24;21.30;86.50
56044;DHT22;41912;51.022;3.664;2023-05-27T11:06:16;21.40;85.00
56044;DHT22;41912;51.022;3.664;2023-05-27T11:08:42;21.40;84.50
56044;DHT22;41912;51.022;3.664;2023-05-27T11:11:09;21.50;85.80
56044;DHT22;41912;51.022;3.664;2023-05-27T11:13:38;21.60;85.20
56044;DHT22;41912;51.022;3.664;2023-05-27T11:16:05;21.60;85.30
56044;DHT22;41912;51.022;3.664;2023-05-27T11:18:40;21.70;85.20
56044;DHT22;41912;51.022;3.664;2023-05-27T11:21:07;21.90;85.10
56044;DHT22;41912;51.022;3.664;2023-05-27T11:23:40;22.00;85.70
56044;DHT22;41912;51.022;3.664;2023-05-27T11:26:18;22.10;81.60
56044;DHT22;41912;51.022;3.664;2023-05-27T11:28:51;22.20;82.30
56044;DHT22;41912;51.022;3.664;2023-05-27T11:31:19;22.20;81.80
56044;DHT22;41912;51.022;3.664;2023-05-27T11:33:46;22.30;82.60
56044;DHT22;41912;51.022;3.664;2023-05-27T11:36:15;22.30;77.80
56044;DHT22;41912;51.022;3.664;2023-05-27T11:38:53;22.40;79.20
56044;DHT22;41912;51.022;3.664;2023-05-27T11:41:20;22.50;77.20
56044;DHT22;41912;51.022;3.664;2023-05-27T11:43:59;22.50;78.80
56044;DHT22;41912;51.022;3.664;2023-05-27T11:46:35;22.60;80.60
56044;DHT22;41912;51.022;3.664;2023-05-27T11:49:06;22.70;75.20
56044;DHT22;41912;51.022;3.664;2023-05-27T11:51:37;22.80;79.20
56044;DHT22;41912;51.022;3.664;2023-05-27T11:54:03;22.80;78.10
56044;DHT22;41912;51.022;3.664;2023-05-27T11:56:29;22.80;77.50
56044;DHT22;41912;51.022;3.664;2023-05-27T11:58:56;22.90;76.40
56044;DHT22;41912;51.022;3.664;2023-05-27T12:01:22;23.00;75.50
56044;DHT22;41912;51.022;3.664;2023-05-27T12:03:48;23.10;74.10
56044;DHT22;41912;51.022;3.664;2023-05-27T12:06:13;23.10;76.00
56044;DHT22;41912;51.022;3.664;2023-05-27T12:08:41;23.20;75.90
56044;DHT22;41912;51.022;3.664;2023-05-27T12:11:07;23.40;72.00
56044;DHT22;41912;51.022;3.664;2023-05-27T12:13:32;23.40;72.70
56044;DHT22;41912;51.022;3.664;2023-05-27T12:15:58;23.50;72.70
56044;DHT22;41912;51.022;3.664;2023-05-27T12:18:24;23.50;72.60
56044;DHT22;41912;51.022;3.664;2023-05-27T12:20:50;23.60;71.60
56044;DHT22;41912;51.022;3.664;2023-05-27T12:23:16;23.70;72.00
56044;DHT22;41912;51.022;3.664;2023-05-27T12:25:42;23.70;70.20
56044;DHT22;41912;51.022;3.664;2023-05-27T12:28:08;23.80;71.00
56044;DHT22;41912;51.022;3.664;2023-05-27T12:30:35;23.90;68.70
56044;DHT22;41912;51.022;3.664;2023-05-27T12:33:05;23.90;67.00
56044;DHT22;41912;51.022;3.664;2023-05-27T12:35:32;23.90;66.80
56044;DHT22;41912;51.022;3.664;2023-05-27T12:37:58;24.00;71.00
56044;DHT22;41912;51.022;3.664;2023-05-27T12:40:24;24.10;70.50
56044;DHT22;41912;51.022;3.664;2023-05-27T12:42:50;24.20;69.20
56044;DHT22;41912;51.022;3.664;2023-05-27T12:45:16;24.30;66.90
56044;DHT22;41912;51.022;3.664;2023-05-27T12:47:41;24.30;65.40
56044;DHT22;41912;51.022;3.664;2023-05-27T12:50:07;24.40;64.50
56044;DHT22;41912;51.022;3.664;2023-05-27T12:52:33;24.40;65.40
56044;DHT22;41912;51.022;3.664;2023-05-27T12:54:59;24.50;67.10
56044;DHT22;41912;51.022;3.664;2023-05-27T12:57:26;24.50;64.10
56044;DHT22;41912;51.022;3.664;2023-05-27T12:59:51;24.40;64.30
56044;DHT22;41912;51.022;3.664;2023-05-27T13:02:17;24.50;63.00
56044;DHT22;41912;51.022;3.664;2023-05-27T13:04:43;24.60;62.00
56044;DHT22;41912;51.022;3.664;2023-05-27T13:07:10;24.60;63.20
56044;DHT22;41912;51.022;3.664;2023-05-27T13:09:37;24.70;64.00
56044;DHT22;41912;51.022;3.664;2023-05-27T13:12:03;24.60;61.60
56044;DHT22;41912;51.022;3.664;2023-05-27T13:14:29;24.60;61.00
56044;DHT22;41912;51.022;3.664;2023-05-27T13:16:55;24.70;66.40
56044;DHT22;41912;51.022;3.664;2023-05-27T13:19:21;24.70;63.30
56044;DHT22;41912;51.022;3.664;2023-05-27T13:21:47;24.70;65.00
56044;DHT22;41912;51.022;3.664;2023-05-27T13:24:13;24.90;62.60
56044;DHT22;41912;51.022;3.664;2023-05-27T13:26:39;25.00;62.00
56044;DHT22;41912;51.022;3.664;2023-05-27T13:29:04;25.10;60.10
56044;DHT22;41912;51.022;3.664;2023-05-27T13:31:30;25.10;59.60
56044;DHT22;41912;51.022;3.664;2023-05-27T13:33:56;25.20;60.70
56044;DHT22;41912;51.022;3.664;2023-05-27T13:36:22;25.20;60.90
56044;DHT22;41912;51.022;3.664;2023-05-27T13:38:47;25.20;61.80
56044;DHT22;41912;51.022;3.664;2023-05-27T13:41:14;25.30;62.90
56044;DHT22;41912;51.022;3.664;2023-05-27T13:43:39;25.40;59.30
56044;DHT22;41912;51.022;3.664;2023-05-27T13:46:05;25.40;61.80
56044;DHT22;41912;51.022;3.664;2023-05-27T13:48:31;25.60;62.50
56044;DHT22;41912;51.022;3.664;2023-05-27T13:50:57;25.60;55.80
56044;DHT22;41912;51.022;3.664;2023-05-27T13:53:23;25.60;54.80
56044;DHT22;41912;51.022;3.664;2023-05-27T13:55:48;25.60;54.30
56044;DHT22;41912;51.022;3.664;2023-05-27T13:58:14;25.60;54.30
56044;DHT22;41912;51.022;3.664;2023-05-27T14:00:40;25.60;55.70
56044;DHT22;41912;51.022;3.664;2023-05-27T14:03:06;25.70;57.50
56044;DHT22;41912;51.022;3.664;2023-05-27T14:05:32;25.70;59.60
56044;DHT22;41912;51.022;3.664;2023-05-27T14:07:59;25.80;59.60
56044;DHT22;41912;51.022;3.664;2023-05-27T14:10:26;25.80;57.70
56044;DHT22;41912;51.022;3.664;2023-05-27T14:12:52;25.80;57.70
56044;DHT22;41912;51.022;3.664;2023-05-27T14:15:18;25.90;57.80
56044;DHT22;41912;51.022;3.664;2023-05-27T14:17:43;25.80;57.70
56044;DHT22;41912;51.022;3.664;2023-05-27T14:20:09;25.80;57.70
56044;DHT22;41912;51.022;3.664;2023-05-27T14:22:36;26.00;57.60
56044;DHT22;41912;51.022;3.664;2023-05-27T14:25:03;26.00;56.60
56044;DHT22;41912;51.022;3.664;2023-05-27T14:27:28;26.10;57.70
56044;DHT22;41912;51.022;3.664;2023-05-27T14:29:54;26.10;55.70
56044;DHT22;41912;51.022;3.664;2023-05-27T14:32:20;26.00;54.60
56044;DHT22;41912;51.022;3.664;2023-05-27T14:34:45;26.20;53.90
56044;DHT22;41912;51.022;3.664;2023-05-27T14:37:11;26.20;56.00
56044;DHT22;41912;51.022;3.664;2023-05-27T14:39:37;26.30;54.40
56044;DHT22;41912;51.022;3.664;2023-05-27T14:42:02;26.30;55.80
56044;DHT22;41912;51.022;3.664;2023-05-27T14:44:31;26.40;56.70
56044;DHT22;41912;51.022;3.664;2023-05-27T14:46:57;26.40;56.70
56044;DHT22;41912;51.022;3.664;2023-05-27T14:49:22;26.40;55.70
56044;DHT22;41912;51.022;3.664;2023-05-27T14:51:48;26.40;54.60
56044;DHT22;41912;51.022;3.664;2023-05-27T14:54:14;26.40;54.10
56044;DHT22;41912;51.022;3.664;2023-05-27T14:56:40;26.40;54.70
56044;DHT22;41912;51.022;3.664;2023-05-27T14:59:05;26.50;54.20
56044;DHT22;41912;51.022;3.664;2023-05-27T15:01:31;26.60;54.90
56044;DHT22;41912;51.022;3.664;2023-05-27T15:03:57;26.60;55.00
56044;DHT22;41912;51.022;3.664;2023-05-27T15:06:22;26.70;55.00
56044;DHT22;41912;51.022;3.664;2023-05-27T15:08:48;26.70;55.40
56044;DHT22;41912;51.022;3.664;2023-05-27T15:11:13;26.70;55.30
56044;DHT22;41912;51.022;3.664;2023-05-27T15:13:39;26.70;54.20
56044;DHT22;41912;51.022;3.664;2023-05-27T15:16:05;26.70;54.10
56044;DHT22;41912;51.022;3.664;2023-05-27T15:18:31;26.70;53.20
56044;DHT22;41912;51.022;3.664;2023-05-27T15:20:57;26.70;56.60
56044;DHT22;41912;51.022;3.664;2023-05-27T15:23:23;26.70;52.70
56044;DHT22;41912;51.022;3.664;2023-05-27T15:25:48;26.70;53.80
56044;DHT22;41912;51.022;3.664;2023-05-27T15:28:14;26.70;51.50
56044;DHT22;41912;51.022;3.664;2023-05-27T15:30:40;26.60;53.00
56044;DHT22;41912;51.022;3.664;2023-05-27T15:33:05;26.60;51.70
56044;DHT22;41912;51.022;3.664;2023-05-27T15:35:31;26.60;52.00
56044;DHT22;41912;51.022;3.664;2023-05-27T15:37:57;26.70;52.90
56044;DHT22;41912;51.022;3.664;2023-05-27T15:40:23;26.70;52.00